Time;durP1;ratioP1;P1;durP2;ratioP2;P2;SDS_P1;SDS_P2;PMS_P1;PMS_P2;Temp;Humidity;BMP_temperature;BMP_pressure;BME280_temperature;BME280_humidity;BME280_pressure;Samples;Min_cycle;Max_cycle;Signal;HPM_P1;HPM_P2
2021/06/14 07:31:00;;;;;;;9.25;8.45;;;15.80;99.90;;;;;;5070416;27;20383;-63
2021/06/14 07:33:28;;;;;;;8.88;7.97;;;15.80;99.90;;;;;;5070013;28;20016;-64
2021/06/14 07:35:55;;;;;;;6.47;5.88;;;15.70;99.90;;;;;;5070112;28;20387;-64
2021/06/14 07:38:23;;;;;;;7.25;6.60;;;15.70;99.90;;;;;;5070030;28;20023;-64
2021/06/14 07:40:52;;;;;;;6.88;6.25;;;15.70;99.90;;;;;;5069916;28;20025;-62
2021/06/14 07:43:19;;;;;;;6.90;6.40;;;15.60;99.90;;;;;;5070016;28;20017;-63
2021/06/14 07:45:48;;;;;;;6.85;6.20;;;15.60;99.90;;;;;;5069873;28;20435;-63
2021/06/14 07:48:16;;;;;;;7.40;6.70;;;15.60;99.90;;;;;;5069815;28;20017;-64
2021/06/14 07:50:44;;;;;;;7.90;7.20;;;15.50;99.90;;;;;;5069805;28;20021;-64
2021/06/14 07:53:12;;;;;;;8.27;7.57;;;15.50;99.90;;;;;;5069761;28;20037;-65
2021/06/14 07:55:40;;;;;;;7.85;7.13;;;15.50;99.90;;;;;;5069981;28;20047;-64
2021/06/14 07:58:08;;;;;;;8.48;7.88;;;15.50;99.90;;;;;;5069457;28;20021;-64
2021/06/14 08:00:37;;;;;;;8.98;8.07;;;15.50;99.90;;;;;;5069651;28;20068;-64
2021/06/14 08:03:05;;;;;;;8.68;7.85;;;15.40;99.90;;;;;;5069431;28;20032;-64
2021/06/14 08:05:32;;;;;;;8.15;7.55;;;15.30;99.90;;;;;;5069521;28;20017;-64
2021/06/14 08:07:59;;;;;;;9.23;8.63;;;15.20;99.90;;;;;;5069392;28;20476;-65
2021/06/14 08:10:27;;;;;;;9.68;8.80;;;15.10;99.90;;;;;;5069246;28;20044;-67
2021/06/14 08:12:55;;;;;;;9.32;8.70;;;15.00;99.90;;;;;;5069388;28;20017;-63
2021/06/14 08:15:28;;;;;;;10.23;9.43;;;14.90;99.90;;;;;;5069293;28;20053;-64
2021/06/14 08:21:41;;;;;;;12.30;11.30;;;14.70;99.90;;;;;;5049520;28;20028;-64
2021/06/14 08:26:16;;;;;;;12.70;11.70;;;14.60;99.90;;;;;;5049589;28;20582;-64
2021/06/14 08:28:43;;;;;;;10.80;9.95;;;14.60;99.90;;;;;;5048858;28;20437;-64
2021/06/14 08:31:10;;;;;;;11.63;10.63;;;14.60;99.90;;;;;;5039794;28;20029;-65
2021/06/14 08:33:38;;;;;;;10.90;10.10;;;14.50;99.90;;;;;;5035993;28;20158;-65
2021/06/14 08:36:06;;;;;;;11.60;10.68;;;14.40;99.90;;;;;;5051071;28;20022;-63
2021/06/14 08:38:33;;;;;;;12.05;11.05;;;14.40;99.90;;;;;;5035636;28;20029;-65
2021/06/14 08:41:00;;;;;;;11.13;10.23;;;14.40;99.90;;;;;;5035627;28;20433;-63
2021/06/14 08:43:29;;;;;;;11.35;10.55;;;14.40;99.90;;;;;;5035739;28;20393;-63
2021/06/14 08:45:57;;;;;;;10.82;10.13;;;14.30;99.90;;;;;;5035526;28;20066;-63
2021/06/14 08:48:25;;;;;;;13.73;12.68;;;14.30;99.90;;;;;;5035330;28;20025;-63
2021/06/14 08:50:53;;;;;;;13.80;12.75;;;14.20;99.90;;;;;;5035492;28;20044;-63
2021/06/14 08:53:22;;;;;;;13.48;12.45;;;14.30;99.90;;;;;;5035458;28;20048;-64
2021/06/14 08:55:49;;;;;;;13.68;12.77;;;14.20;99.90;;;;;;5035324;28;20021;-62
2021/06/14 08:58:17;;;;;;;11.65;10.80;;;14.20;99.90;;;;;;5035363;28;20143;-63
2021/06/14 09:00:44;;;;;;;13.15;12.02;;;14.10;99.90;;;;;;5035186;28;20024;-63
2021/06/14 09:03:12;;;;;;;13.65;12.55;;;14.10;99.90;;;;;;5035222;28;20047;-62
2021/06/14 09:05:39;;;;;;;12.98;12.27;;;14.00;99.90;;;;;;5035221;28;20034;-64
2021/06/14 09:08:07;;;;;;;13.20;12.40;;;13.90;99.90;;;;;;5035085;28;20031;-62
2021/06/14 09:10:41;;;;;;;14.10;13.00;;;13.90;99.90;;;;;;5034968;28;20024;-63
2021/06/14 09:13:17;;;;;;;15.00;14.00;;;13.90;99.90;;;;;;5034938;28;20055;-63
2021/06/14 09:15:47;;;;;;;15.45;14.45;;;13.90;99.90;;;;;;5035140;28;20485;-63
2021/06/14 09:18:26;;;;;;;15.20;14.15;;;13.80;99.90;;;;;;5050582;28;20018;-63
2021/06/14 09:21:11;;;;;;;14.50;13.30;;;13.70;99.90;;;;;;5035037;28;20088;-63
2021/06/14 09:23:43;;;;;;;15.05;13.95;;;13.70;99.90;;;;;;5035041;28;20487;-64
2021/06/14 09:26:30;;;;;;;15.27;14.25;;;13.70;99.90;;;;;;5034865;28;20079;-63
2021/06/14 09:29:05;;;;;;;17.15;15.57;;;13.60;99.90;;;;;;5030913;28;20405;-65
2021/06/14 09:32:02;;;;;;;18.08;16.63;;;13.50;99.90;;;;;;5034769;28;20022;-65
2021/06/14 09:34:35;;;;;;;17.25;16.02;;;13.40;99.90;;;;;;5034172;28;20056;-64
2021/06/14 09:37:06;;;;;;;18.50;16.92;;;13.30;99.90;;;;;;5034644;28;20473;-64
2021/06/14 09:39:42;;;;;;;19.00;17.60;;;13.30;99.90;;;;;;5034721;28;20055;-64
2021/06/14 09:42:39;;;;;;;20.45;18.95;;;13.20;99.90;;;;;;5033507;28;20412;-64
2021/06/14 09:45:08;;;;;;;20.05;18.48;;;13.10;99.90;;;;;;5034103;28;20033;-64
2021/06/14 09:47:36;;;;;;;20.38;18.98;;;13.00;99.90;;;;;;5034417;28;20029;-64
2021/06/14 09:50:08;;;;;;;21.45;20.17;;;13.00;99.90;;;;;;5034324;28;20017;-64
2021/06/14 09:52:36;;;;;;;21.90;20.63;;;12.90;99.90;;;;;;5034299;28;20025;-64
2021/06/14 09:55:28;;;;;;;24.27;22.63;;;12.80;99.90;;;;;;5034119;28;20470;-63
2021/06/14 09:57:56;;;;;;;24.30;22.58;;;12.80;99.90;;;;;;5034107;28;20474;-65
2021/06/14 10:00:23;;;;;;;26.42;24.67;;;12.70;99.90;;;;;;5034024;28;20108;-64
2021/06/14 10:02:58;;;;;;;26.67;24.98;;;12.70;99.90;;;;;;5034065;28;20021;-63
2021/06/14 10:05:25;;;;;;;28.58;26.77;;;12.70;99.90;;;;;;5034074;28;20029;-64
2021/06/14 10:07:56;;;;;;;30.45;28.75;;;12.70;99.90;;;;;;5033925;28;20091;-63
2021/06/14 10:10:29;;;;;;;32.38;30.27;;;12.70;99.90;;;;;;5033822;28;20018;-64
2021/06/14 10:12:58;;;;;;;33.33;31.30;;;12.70;99.90;;;;;;5033798;28;20390;-63
2021/06/14 10:15:30;;;;;;;33.90;31.90;;;12.70;99.90;;;;;;5033690;28;20024;-64
2021/06/14 10:17:57;;;;;;;35.75;33.80;;;12.70;99.90;;;;;;5033714;28;20030;-64
2021/06/14 10:20:30;;;;;;;37.95;35.78;;;12.60;99.90;;;;;;5033538;28;20482;-63
2021/06/14 10:23:00;;;;;;;35.33;33.15;;;12.60;99.90;;;;;;5033899;28;20477;-63
2021/06/14 10:25:28;;;;;;;37.88;35.40;;;12.60;99.90;;;;;;5033771;28;20191;-63
2021/06/14 10:27:56;;;;;;;37.13;34.63;;;12.50;99.90;;;;;;5033400;28;20033;-63
2021/06/14 10:30:25;;;;;;;38.22;36.03;;;12.50;99.90;;;;;;5033389;28;20191;-63
2021/06/14 10:32:53;;;;;;;43.03;40.47;;;12.40;99.90;;;;;;5033938;28;20458;-64
2021/06/14 10:35:21;;;;;;;47.38;44.88;;;12.40;99.90;;;;;;5033365;28;20382;-63
2021/06/14 10:37:50;;;;;;;43.03;40.53;;;12.40;99.90;;;;;;5033501;28;20048;-64
2021/06/14 10:40:22;;;;;;;43.38;40.85;;;12.40;99.90;;;;;;5033504;28;20259;-64
2021/06/14 10:42:50;;;;;;;47.83;44.80;;;12.40;99.90;;;;;;5033333;28;20127;-64
2021/06/14 10:45:23;;;;;;;44.80;42.15;;;12.50;99.90;;;;;;5033337;28;20060;-66
2021/06/14 10:47:51;;;;;;;47.55;44.85;;;12.50;99.90;;;;;;5033228;28;20075;-65
2021/06/14 10:50:24;;;;;;;46.70;43.80;;;12.50;99.90;;;;;;5033114;28;20021;-64
2021/06/14 10:52:54;;;;;;;51.03;48.03;;;12.60;99.90;;;;;;5033056;28;20492;-64
2021/06/14 10:55:26;;;;;;;49.05;45.72;;;12.60;99.90;;;;;;5033175;28;20044;-64
2021/06/14 10:57:56;;;;;;;47.03;44.03;;;12.70;99.90;;;;;;5033156;28;20092;-64
2021/06/14 11:00:36;;;;;;;51.25;48.25;;;12.70;99.90;;;;;;5033123;28;20083;-65
2021/06/14 11:03:08;;;;;;;53.10;50.20;;;12.70;99.90;;;;;;5033063;28;20481;-65
2021/06/14 11:05:40;;;;;;;56.00;52.95;;;12.70;99.90;;;;;;5033080;28;20056;-64
2021/06/14 11:08:18;;;;;;;51.00;47.97;;;12.80;99.90;;;;;;5032981;28;20048;-64
2021/06/14 11:10:58;;;;;;;47.75;45.05;;;12.70;99.90;;;;;;5032996;28;20412;-64
2021/06/14 11:13:26;;;;;;;51.42;47.72;;;12.70;99.90;;;;;;5033069;28;20092;-65
2021/06/14 11:15:55;;;;;;;46.50;43.80;;;12.70;99.90;;;;;;5033031;28;20018;-64
2021/06/14 11:18:31;;;;;;;48.65;45.85;;;12.60;99.90;;;;;;5032914;28;20063;-64
2021/06/14 11:21:10;;;;;;;50.05;47.25;;;12.60;99.90;;;;;;5032956;28;20103;-64
2021/06/14 11:23:38;;;;;;;47.60;44.88;;;12.60;99.90;;;;;;5032833;28;20025;-64
2021/06/14 11:26:09;;;;;;;47.55;44.85;;;12.60;99.90;;;;;;5032841;28;20025;-64
2021/06/14 11:28:38;;;;;;;;;;;12.60;99.90;;;;;;5033089;28;20117;-64
2021/06/14 11:31:30;;;;;;;47.30;44.58;;;12.60;99.90;;;;;;5032859;28;19905;-64
2021/06/14 11:34:02;;;;;;;46.00;43.38;;;12.50;99.90;;;;;;5032767;28;20014;-64
2021/06/14 11:36:31;;;;;;;42.88;40.08;;;12.50;99.90;;;;;;5032973;28;20079;-64
2021/06/14 11:39:11;;;;;;;40.47;37.67;;;12.50;99.90;;;;;;5032567;28;20036;-64
2021/06/14 11:41:38;;;;;;;43.28;40.38;;;12.60;99.90;;;;;;5032638;28;20036;-65
2021/06/14 11:44:24;;;;;;;47.08;44.20;;;12.70;99.90;;;;;;5032622;28;20030;-65
2021/06/14 11:46:57;;;;;;;49.38;46.38;;;12.80;99.90;;;;;;5032602;28;20029;-64
2021/06/14 11:49:35;;;;;;;47.97;44.78;;;12.90;99.90;;;;;;5032576;28;20347;-64
2021/06/14 11:52:16;;;;;;;49.97;46.70;;;13.00;99.90;;;;;;5032503;28;20079;-64
2021/06/14 11:54:44;;;;;;;49.25;45.85;;;13.00;99.90;;;;;;5032671;28;20075;-64
2021/06/14 11:57:12;;;;;;;52.90;49.42;;;13.00;99.90;;;;;;5032432;28;20048;-65
2021/06/14 11:59:40;;;;;;;54.15;50.80;;;13.00;99.90;;;;;;5047712;28;20025;-64
2021/06/14 12:02:25;;;;;;;54.33;50.92;;;13.00;99.90;;;;;;5032437;28;20613;-65
2021/06/14 12:05:02;;;;;;;55.08;51.63;;;13.00;99.90;;;;;;5032414;28;20079;-64
2021/06/14 12:07:41;;;;;;;55.15;51.45;;;13.00;99.90;;;;;;5036192;28;20071;-64
2021/06/14 12:10:14;;;;;;;53.65;50.35;;;13.00;99.90;;;;;;5036356;28;20033;-65
2021/06/14 12:12:46;;;;;;;57.10;53.35;;;13.00;99.90;;;;;;5036331;28;20029;-64
2021/06/14 12:15:14;;;;;;;54.50;51.10;;;13.00;99.90;;;;;;5036194;28;20040;-64
2021/06/14 12:17:44;;;;;;;58.22;54.65;;;13.10;99.90;;;;;;5036172;28;20044;-64
2021/06/14 12:20:12;;;;;;;53.47;50.17;;;13.10;99.90;;;;;;5036020;28;20390;-64
2021/06/14 12:22:40;;;;;;;57.75;54.38;;;13.20;99.90;;;;;;5035987;28;20517;-65
2021/06/14 12:25:11;;;;;;;52.90;49.58;;;13.20;99.90;;;;;;5036127;28;20037;-65
2021/06/14 12:27:39;;;;;;;53.63;50.25;;;13.20;99.90;;;;;;5035996;28;20036;-64
2021/06/14 12:30:12;;;;;;;48.83;45.83;;;13.30;99.90;;;;;;5067758;28;20063;-64
2021/06/14 12:32:40;;;;;;;56.53;53.22;;;13.30;99.90;;;;;;5035941;28;20021;-65
2021/06/14 12:35:10;;;;;;;45.03;42.05;;;13.30;99.90;;;;;;5035929;28;20021;-65
2021/06/14 12:37:37;;;;;;;47.55;44.75;;;13.30;99.90;;;;;;5035785;28;20428;-65
2021/06/14 12:40:15;;;;;;;44.92;42.13;;;13.30;99.90;;;;;;5035775;28;20022;-64
2021/06/14 12:42:43;;;;;;;46.05;42.72;;;13.30;99.90;;;;;;5035723;28;20022;-64
2021/06/14 12:45:13;;;;;;;45.03;42.22;;;13.20;99.90;;;;;;5035543;28;20032;-64
2021/06/14 12:47:49;;;;;;;45.10;42.20;;;13.20;99.90;;;;;;5067570;28;20030;-64
2021/06/14 12:50:24;;;;;;;47.83;44.92;;;13.20;99.90;;;;;;5035501;28;20104;-65
2021/06/14 12:52:53;;;;;;;45.47;42.78;;;13.10;99.90;;;;;;5035475;28;20059;-64
2021/06/14 12:55:26;;;;;;;47.60;44.40;;;13.00;99.90;;;;;;5035507;28;20501;-64
2021/06/14 12:57:54;;;;;;;43.88;41.13;;;13.10;99.90;;;;;;5035748;28;20017;-64
2021/06/14 13:00:32;;;;;;;47.92;45.10;;;13.00;99.90;;;;;;5035347;28;20029;-64
2021/06/14 13:03:03;;;;;;;45.72;42.83;;;13.00;99.90;;;;;;5035300;28;20108;-64
2021/06/14 13:05:36;;;;;;;47.45;44.55;;;12.90;99.90;;;;;;5035236;28;20167;-65
2021/06/14 13:08:13;;;;;;;46.55;43.35;;;12.90;99.90;;;;;;5035385;28;20030;-65
2021/06/14 13:10:53;;;;;;;48.08;45.15;;;12.90;99.90;;;;;;5035099;28;20044;-65
2021/06/14 13:13:24;;;;;;;47.72;44.45;;;12.80;99.90;;;;;;5035086;28;20433;-65
2021/06/14 13:16:11;;;;;;;45.53;42.53;;;12.80;99.90;;;;;;5035133;28;20423;-65
2021/06/14 13:18:44;;;;;;;48.03;45.03;;;12.80;99.90;;;;;;5035015;28;20395;-67
2021/06/14 13:21:15;;;;;;;45.45;42.55;;;12.80;99.90;;;;;;5035045;28;20501;-65
2021/06/14 13:23:54;;;;;;;49.80;46.80;;;12.80;99.90;;;;;;5034885;28;20022;-66
2021/06/14 13:26:25;;;;;;;49.88;46.72;;;12.70;99.90;;;;;;5034890;28;20490;-65
2021/06/14 13:28:53;;;;;;;49.17;46.17;;;12.70;99.90;;;;;;5034604;28;20091;-66
2021/06/14 13:31:25;;;;;;;49.03;46.03;;;12.70;99.90;;;;;;5034935;28;20074;-66
2021/06/14 13:36:42;;;;;;;49.15;46.15;;;12.60;99.90;;;;;;5034696;28;20017;-67
2021/06/14 13:39:19;;;;;;;47.17;44.17;;;12.60;99.90;;;;;;5034665;28;20072;-67
2021/06/14 13:41:48;;;;;;;51.92;48.45;;;12.50;99.90;;;;;;5034669;28;20021;-67
2021/06/14 13:44:19;;;;;;;50.90;47.72;;;12.50;99.90;;;;;;5066675;28;20504;-67
2021/06/14 13:46:51;;;;;;;50.30;47.20;;;12.50;99.90;;;;;;5034597;28;20030;-66
2021/06/14 13:49:29;;;;;;;54.25;50.85;;;12.50;99.90;;;;;;5034352;28;20383;-64
2021/06/14 13:52:22;;;;;;;52.97;49.58;;;12.60;99.90;;;;;;5034485;28;20056;-65
2021/06/14 13:55:01;;;;;;;54.28;50.95;;;12.50;99.90;;;;;;5033203;28;20371;-66
2021/06/14 13:57:29;;;;;;;54.80;51.22;;;12.60;99.90;;;;;;5034339;28;20021;-67
2021/06/14 14:00:14;;;;;;;49.60;46.35;;;12.50;99.90;;;;;;5034171;28;20029;-65
2021/06/14 14:02:48;;;;;;;52.38;49.03;;;12.50;99.90;;;;;;5034259;28;20076;-67
2021/06/14 14:05:31;;;;;;;51.30;48.10;;;12.60;99.90;;;;;;5034116;28;20052;-67
2021/06/14 14:08:00;;;;;;;51.78;48.25;;;12.60;99.90;;;;;;5034532;28;20029;-67
2021/06/14 14:10:29;;;;;;;46.63;43.42;;;12.70;99.90;;;;;;5034015;28;20056;-67
2021/06/14 14:12:57;;;;;;;51.25;47.95;;;12.70;99.90;;;;;;5033928;28;20080;-66
2021/06/14 14:15:25;;;;;;;53.15;49.60;;;12.70;99.90;;;;;;5033977;28;20028;-67
2021/06/14 14:17:53;;;;;;;49.25;46.25;;;12.70;99.90;;;;;;5033862;28;20022;-67
2021/06/14 14:20:25;;;;;;;44.40;41.45;;;12.70;99.90;;;;;;5065824;28;20040;-67
2021/06/14 14:22:53;;;;;;;48.88;45.90;;;12.70;99.90;;;;;;5033848;28;20441;-65
2021/06/14 14:25:23;;;;;;;52.22;48.67;;;12.70;99.90;;;;;;5033749;28;20026;-67
2021/06/14 14:27:50;;;;;;;50.47;47.27;;;12.70;99.90;;;;;;5033496;28;20021;-67
2021/06/14 14:30:19;;;;;;;45.90;42.80;;;12.70;99.90;;;;;;5033316;28;20290;-67
2021/06/14 14:32:47;;;;;;;47.80;44.80;;;12.70;99.90;;;;;;5033647;28;20029;-67
2021/06/14 14:35:27;;;;;;;49.90;46.80;;;12.60;99.90;;;;;;5033628;28;20014;-66
2021/06/14 14:38:00;;;;;;;49.70;46.75;;;12.60;99.90;;;;;;5033586;28;20031;-68
2021/06/14 14:40:33;;;;;;;47.45;44.45;;;12.70;99.90;;;;;;5033557;28;20029;-68
2021/06/14 14:43:02;;;;;;;49.42;46.22;;;12.60;99.90;;;;;;5033578;28;20044;-65
2021/06/14 14:45:29;;;;;;;51.20;48.00;;;12.60;99.90;;;;;;5033437;28;20040;-66
2021/06/14 14:48:05;;;;;;;51.60;48.40;;;12.60;99.90;;;;;;5033444;28;20025;-67
2021/06/14 14:50:38;;;;;;;51.08;47.88;;;12.60;99.90;;;;;;5033349;28;20112;-68
2021/06/14 14:53:05;;;;;;;51.67;48.50;;;12.60;99.90;;;;;;5033451;28;20021;-66
2021/06/14 14:55:33;;;;;;;53.97;50.60;;;12.60;99.90;;;;;;5033335;28;20441;-66
2021/06/14 14:58:01;;;;;;;54.05;50.65;;;12.50;99.90;;;;;;5033344;28;20473;-66
2021/06/14 15:00:29;;;;;;;52.60;49.60;;;12.50;99.90;;;;;;5065301;28;20501;-67
2021/06/14 15:02:57;;;;;;;53.00;50.00;;;12.60;99.90;;;;;;5033203;28;20029;-66
2021/06/14 15:05:25;;;;;;;53.53;50.42;;;12.60;99.90;;;;;;5033083;28;20108;-66
2021/06/14 15:07:52;;;;;;;52.80;49.70;;;12.60;99.90;;;;;;5033061;28;20108;-67
2021/06/14 15:10:22;;;;;;;52.03;49.03;;;12.60;99.90;;;;;;5033038;28;20026;-67
2021/06/14 15:12:50;;;;;;;52.47;49.38;;;12.60;99.90;;;;;;5033151;28;20028;-66
2021/06/14 15:15:19;;;;;;;55.15;52.03;;;12.60;99.90;;;;;;5033327;28;20017;-67
2021/06/14 15:17:48;;;;;;;55.10;51.90;;;12.60;99.90;;;;;;5033089;28;20385;-67
2021/06/14 15:20:17;;;;;;;54.13;50.83;;;12.60;99.90;;;;;;5033120;28;20037;-67
2021/06/14 15:22:46;;;;;;;54.10;50.90;;;12.60;99.90;;;;;;5033036;28;20537;-67
2021/06/14 15:25:16;;;;;;;53.47;50.38;;;12.60;99.90;;;;;;5033093;28;20033;-67
2021/06/14 15:27:43;;;;;;;50.10;47.03;;;12.60;99.90;;;;;;5033024;28;20030;-67
2021/06/14 15:30:14;;;;;;;50.60;47.70;;;12.60;99.90;;;;;;5032715;28;20048;-67
2021/06/14 15:32:48;;;;;;;53.20;49.97;;;12.60;99.90;;;;;;5033025;28;20398;-66
2021/06/14 15:35:23;;;;;;;52.22;49.20;;;12.60;99.90;;;;;;5032907;28;20478;-66
2021/06/14 15:37:56;;;;;;;46.40;43.60;;;12.60;99.90;;;;;;5032948;28;20092;-65
2021/06/14 15:40:25;;;;;;;50.53;47.42;;;12.70;99.90;;;;;;5033886;28;20033;-64
2021/06/14 15:42:52;;;;;;;51.55;48.55;;;12.60;99.90;;;;;;5036922;28;20034;-66
2021/06/14 15:45:22;;;;;;;52.53;49.30;;;12.60;99.90;;;;;;5036819;28;20060;-66
2021/06/14 15:47:50;;;;;;;46.65;43.78;;;12.60;99.90;;;;;;5036830;28;20060;-66
2021/06/14 15:50:18;;;;;;;51.10;48.05;;;12.60;99.90;;;;;;5036778;28;20025;-66
2021/06/14 15:52:46;;;;;;;49.42;46.42;;;12.50;99.90;;;;;;5036697;28;20021;-66
2021/06/14 15:55:15;;;;;;;53.15;49.95;;;12.50;99.90;;;;;;5036708;28;20112;-66
2021/06/14 15:57:43;;;;;;;50.00;46.90;;;12.50;99.90;;;;;;5036903;28;20025;-66
2021/06/14 16:00:12;;;;;;;53.00;49.83;;;12.50;99.90;;;;;;5036615;28;20060;-64
2021/06/14 16:02:40;;;;;;;52.42;49.53;;;12.40;99.90;;;;;;5036448;28;20385;-64
2021/06/14 16:05:12;;;;;;;51.10;48.03;;;12.40;99.90;;;;;;5036460;28;20052;-65
2021/06/14 16:07:39;;;;;;;53.75;50.58;;;12.40;99.90;;;;;;5036366;28;20029;-64
2021/06/14 16:10:09;;;;;;;53.22;50.33;;;12.40;99.90;;;;;;5036192;28;20057;-67
2021/06/14 16:12:39;;;;;;;52.85;49.92;;;12.40;99.90;;;;;;5036183;28;20022;-64
2021/06/14 16:15:08;;;;;;;52.63;49.42;;;12.40;99.90;;;;;;5068315;28;20021;-67
2021/06/14 16:17:36;;;;;;;52.72;49.60;;;12.40;99.90;;;;;;5036186;28;20029;-67
2021/06/14 16:20:09;;;;;;;47.55;44.67;;;12.40;99.90;;;;;;5036064;28;20108;-66
2021/06/14 16:22:37;;;;;;;48.42;45.30;;;12.40;99.90;;;;;;5036161;28;20371;-67
2021/06/14 16:25:10;;;;;;;54.25;51.05;;;12.40;99.90;;;;;;5036256;28;20481;-67
2021/06/14 16:27:39;;;;;;;48.53;45.63;;;12.30;99.90;;;;;;5035989;28;20030;-67
2021/06/14 16:30:12;;;;;;;54.10;50.92;;;12.30;99.90;;;;;;5067663;28;20049;-67
2021/06/14 16:32:40;;;;;;;56.35;52.97;;;12.30;99.90;;;;;;5036070;28;20048;-67
2021/06/14 16:35:08;;;;;;;49.85;46.80;;;12.40;99.90;;;;;;5035930;28;20501;-66
2021/06/14 16:37:36;;;;;;;52.83;49.72;;;12.30;99.90;;;;;;5035806;28;20028;-67
2021/06/14 16:40:05;;;;;;;53.97;50.97;;;12.30;99.90;;;;;;5035845;28;20025;-66
2021/06/14 16:42:33;;;;;;;55.25;51.90;;;12.30;99.90;;;;;;5035851;28;20021;-66
2021/06/14 16:45:00;;;;;;;48.00;44.95;;;12.30;99.90;;;;;;5036018;28;20104;-65
2021/06/14 16:47:27;;;;;;;51.58;48.47;;;12.30;99.90;;;;;;5035676;28;20021;-66
2021/06/14 16:49:55;;;;;;;53.00;49.97;;;12.20;99.90;;;;;;5035658;28;20498;-64
2021/06/14 16:52:22;;;;;;;53.03;49.92;;;12.20;99.90;;;;;;5035194;28;20096;-66
2021/06/14 16:54:50;;;;;;;51.50;48.53;;;12.20;99.90;;;;;;5035628;28;20063;-66
2021/06/14 16:57:17;;;;;;;51.38;48.35;;;12.10;99.90;;;;;;5035477;28;20029;-65
2021/06/14 16:59:44;;;;;;;46.58;43.67;;;12.10;99.90;;;;;;5035450;28;20523;-65
2021/06/14 17:02:12;;;;;;;50.05;47.00;;;12.20;99.90;;;;;;5035565;28;20021;-65
2021/06/14 17:04:39;;;;;;;53.05;49.95;;;12.10;99.90;;;;;;5035419;28;20025;-66
2021/06/14 17:07:06;;;;;;;54.83;51.83;;;12.20;99.90;;;;;;5035290;28;20022;-66
2021/06/14 17:09:34;;;;;;;53.38;50.45;;;12.20;99.90;;;;;;5035155;28;20026;-66
2021/06/14 17:12:02;;;;;;;54.95;51.83;;;12.20;99.90;;;;;;5035112;28;20497;-66
2021/06/14 17:14:29;;;;;;;52.70;49.70;;;12.10;99.90;;;;;;5035378;28;20021;-66
2021/06/14 17:16:57;;;;;;;53.97;50.88;;;12.10;99.90;;;;;;5035101;28;20022;-66
2021/06/14 17:19:24;;;;;;;54.10;51.10;;;12.10;99.90;;;;;;5034966;28;20058;-66
2021/06/14 17:21:51;;;;;;;54.22;51.05;;;12.10;99.90;;;;;;5034997;28;20048;-66
2021/06/14 17:24:19;;;;;;;56.72;53.47;;;12.10;99.90;;;;;;5034944;28;20025;-65
2021/06/14 17:26:47;;;;;;;53.13;50.03;;;12.10;99.90;;;;;;5034893;28;20400;-66
2021/06/14 17:29:14;;;;;;;55.78;52.63;;;12.10;99.90;;;;;;5034603;28;20474;-65
2021/06/14 17:31:41;;;;;;;51.97;49.00;;;12.10;99.90;;;;;;5034917;28;20021;-66
2021/06/14 17:34:09;;;;;;;55.30;52.25;;;12.10;99.90;;;;;;5034789;28;20021;-65
2021/06/14 17:36:36;;;;;;;54.88;51.58;;;12.10;99.90;;;;;;5034727;28;20013;-66
2021/06/14 17:39:05;;;;;;;50.13;47.13;;;12.10;99.90;;;;;;5034708;28;20045;-66
2021/06/14 17:41:33;;;;;;;57.10;53.80;;;12.10;99.90;;;;;;5034682;28;20437;-67
2021/06/14 17:44:00;;;;;;;55.38;52.15;;;12.10;99.90;;;;;;5034629;28;20037;-66
2021/06/14 17:46:28;;;;;;;55.05;51.78;;;12.10;99.90;;;;;;5034557;28;20052;-64
2021/06/14 17:48:55;;;;;;;48.80;45.78;;;12.10;99.90;;;;;;5034426;28;20033;-65
2021/06/14 17:51:23;;;;;;;54.92;51.63;;;12.10;99.90;;;;;;5034541;28;20037;-65
2021/06/14 17:54:04;;;;;;;56.85;53.47;;;12.10;99.90;;;;;;5034243;28;20017;-64
2021/06/14 17:56:33;;;;;;;55.85;52.67;;;12.00;99.90;;;;;;5034333;28;20497;-64
2021/06/14 17:59:06;;;;;;;55.10;51.80;;;12.00;99.90;;;;;;5032953;28;20036;-64
2021/06/14 18:01:35;;;;;;;50.05;46.90;;;12.00;99.90;;;;;;5034221;28;20037;-65
2021/06/14 18:04:02;;;;;;;48.60;45.50;;;12.00;99.90;;;;;;5033330;28;20025;-64
2021/06/14 18:06:30;;;;;;;50.55;47.45;;;12.00;99.90;;;;;;5034089;28;20389;-65
2021/06/14 18:08:57;;;;;;;47.42;44.35;;;12.00;99.90;;;;;;5034304;28;20026;-66
2021/06/14 18:11:25;;;;;;;51.42;48.22;;;12.00;99.90;;;;;;5034126;28;20025;-66
2021/06/14 18:13:53;;;;;;;52.78;49.67;;;11.90;99.90;;;;;;5033953;28;20025;-66
2021/06/14 18:16:20;;;;;;;54.05;50.85;;;12.00;99.90;;;;;;5033884;28;20036;-64
2021/06/14 18:18:49;;;;;;;54.20;51.00;;;11.90;99.90;;;;;;5033774;28;20033;-66
2021/06/14 18:21:17;;;;;;;54.47;51.28;;;11.90;99.90;;;;;;5033822;28;20064;-66
2021/06/14 18:23:45;;;;;;;56.05;52.75;;;11.90;99.90;;;;;;5033770;28;20482;-65
2021/06/14 18:26:12;;;;;;;56.90;53.50;;;11.80;99.90;;;;;;5033782;28;20057;-66
2021/06/14 18:28:39;;;;;;;49.45;46.28;;;11.90;99.90;;;;;;5033512;28;20477;-65
2021/06/14 18:31:07;;;;;;;52.92;49.83;;;11.80;99.90;;;;;;5033716;28;20017;-66
2021/06/14 18:33:34;;;;;;;47.70;44.67;;;11.80;99.90;;;;;;5033586;28;20032;-64
2021/06/14 18:36:03;;;;;;;51.50;48.30;;;11.80;99.90;;;;;;5033588;28;20013;-64
2021/06/14 18:38:35;;;;;;;52.67;49.67;;;11.80;99.90;;;;;;5033444;28;20025;-64
2021/06/14 18:41:17;;;;;;;55.92;52.72;;;11.80;99.90;;;;;;5033609;28;20078;-64
2021/06/14 18:43:47;;;;;;;54.38;50.92;;;11.90;99.90;;;;;;5033523;28;20022;-64
2021/06/14 18:46:16;;;;;;;53.30;50.10;;;11.90;99.90;;;;;;5033780;28;20474;-64
2021/06/14 18:48:44;;;;;;;53.95;50.75;;;11.90;99.90;;;;;;5033657;28;20021;-64
2021/06/14 18:51:11;;;;;;;53.10;49.90;;;11.80;99.90;;;;;;5033331;28;20024;-64
2021/06/14 18:53:39;;;;;;;50.47;47.28;;;11.80;99.90;;;;;;5033241;28;20029;-64
2021/06/14 18:56:06;;;;;;;49.40;46.30;;;11.90;99.90;;;;;;5033206;28;20029;-64
2021/06/14 18:58:34;;;;;;;52.35;49.15;;;11.80;99.90;;;;;;5033272;28;20014;-65
2021/06/14 19:01:01;;;;;;;50.20;47.15;;;11.90;99.90;;;;;;5033271;28;20053;-64
2021/06/14 19:03:28;;;;;;;53.90;50.67;;;11.90;99.90;;;;;;5033076;28;20026;-64
2021/06/14 19:05:58;;;;;;;48.75;45.65;;;11.90;99.90;;;;;;5033176;28;20023;-64
2021/06/14 19:08:26;;;;;;;56.78;53.47;;;11.90;99.90;;;;;;5033140;28;20068;-64
2021/06/14 19:10:54;;;;;;;58.42;54.97;;;11.90;99.90;;;;;;5033107;28;20032;-65
2021/06/14 19:13:21;;;;;;;61.17;57.72;;;11.80;99.90;;;;;;5033037;28;20104;-64
2021/06/14 19:15:48;;;;;;;58.92;55.63;;;11.80;99.90;;;;;;5032848;28;20037;-64
2021/06/14 19:18:15;;;;;;;58.05;54.60;;;11.80;99.90;;;;;;5033019;28;20017;-64
2021/06/14 19:20:43;;;;;;;55.85;52.65;;;11.70;99.90;;;;;;5033200;28;20041;-64
2021/06/14 19:23:10;;;;;;;62.20;58.60;;;11.70;99.90;;;;;;5032863;28;20049;-64
2021/06/14 19:25:38;;;;;;;52.95;49.65;;;11.60;99.90;;;;;;5032920;28;20108;-64
2021/06/14 19:28:05;;;;;;;52.83;49.72;;;11.50;99.90;;;;;;5032809;28;20021;-64
2021/06/14 19:30:33;;;;;;;62.60;59.00;;;11.50;99.90;;;;;;5032777;28;20494;-68
2021/06/14 19:33:02;;;;;;;62.10;58.45;;;11.40;99.90;;;;;;5032932;28;20021;-64
2021/06/14 19:35:30;;;;;;;62.80;59.20;;;11.30;99.90;;;;;;5032974;28;20104;-64
2021/06/14 19:37:58;;;;;;;62.15;58.55;;;11.30;99.90;;;;;;5032747;28;20472;-64
2021/06/14 19:40:26;;;;;;;46.58;43.35;;;11.20;99.90;;;;;;5032848;28;20029;-65
2021/06/14 19:42:53;;;;;;;50.10;46.92;;;11.20;99.90;;;;;;5032851;28;20033;-64
2021/06/14 19:45:21;;;;;;;51.75;48.45;;;11.20;99.90;;;;;;5032788;28;20052;-64
2021/06/14 19:47:49;;;;;;;49.25;45.97;;;11.10;99.90;;;;;;5032704;28;20025;-64
2021/06/14 19:50:18;;;;;;;52.00;48.75;;;11.10;99.90;;;;;;5032863;28;20071;-64
2021/06/14 19:52:46;;;;;;;64.47;60.78;;;11.10;99.90;;;;;;5032739;28;20025;-64
2021/06/14 19:55:16;;;;;;;68.57;64.68;;;11.00;99.90;;;;;;5032773;28;20018;-64
2021/06/14 19:57:46;;;;;;;57.90;54.40;;;11.00;99.90;;;;;;5032828;28;20123;-64
2021/06/14 20:00:18;;;;;;;63.78;60.08;;;11.00;99.90;;;;;;5032606;28;20025;-64
2021/06/14 20:02:46;;;;;;;49.85;46.58;;;10.90;99.90;;;;;;5032682;28;20025;-65
2021/06/14 20:05:14;;;;;;;57.67;54.15;;;10.90;99.90;;;;;;5032604;28;20406;-64
2021/06/14 20:07:43;;;;;;;65.20;61.38;;;11.00;99.90;;;;;;5032445;28;20040;-64
2021/06/14 20:10:12;;;;;;;58.70;55.20;;;11.00;99.90;;;;;;5032446;28;20064;-64
2021/06/14 20:12:39;;;;;;;60.10;56.50;;;10.90;99.90;;;;;;5032508;28;20552;-64
2021/06/14 20:15:08;;;;;;;63.20;59.38;;;10.90;99.90;;;;;;5032495;28;20021;-64
2021/06/14 20:17:37;;;;;;;50.20;46.70;;;10.90;99.90;;;;;;5032378;28;20386;-63
2021/06/14 20:20:07;;;;;;;59.58;55.58;;;10.90;99.90;;;;;;5032426;28;20104;-63
2021/06/14 20:22:35;;;;;;;60.70;57.07;;;10.90;99.90;;;;;;5032408;28;20025;-62